Time;durP1;ratioP1;P1;durP2;ratioP2;P2;SDS_P1;SDS_P2;PMS_P1;PMS_P2;Temp;Humidity;BMP_temperature;BMP_pressure;BME280_temperature;BME280_humidity;BME280_pressure;Samples;Min_cycle;Max_cycle;Signal;HPM_P1;HPM_P2
2022/09/07 00:01:35;;;;;;;4.47;3.10;;;;;;;;;;5021599;28;20520;-64
2022/09/07 00:04:03;;;;;;;5.10;2.80;;;;;;;;;;5034183;28;20434;-64
2022/09/07 00:06:33;;;;;;;3.80;2.50;;;;;;;;;;5027942;28;20866;-64
2022/09/07 00:09:01;;;;;;;9.83;3.70;;;;;;;;;;5014306;28;20488;-64
2022/09/07 00:11:28;;;;;;;5.37;2.47;;;;;;;;;;5018839;28;20514;-64
2022/09/07 00:13:56;;;;;;;6.47;3.70;;;;;;;;;;5034162;28;20451;-65
2022/09/07 00:16:25;;;;;;;5.83;4.40;;;;;;;;;;5032091;28;20443;-65
2022/09/07 00:18:54;;;;;;;9.77;4.20;;;;;;;;;;5034068;28;20505;-64
2022/09/07 00:21:22;;;;;;;4.73;3.30;;;;;;;;;;5028615;28;20439;-64
2022/09/07 00:23:50;;;;;;;7.93;3.60;;;;;;;;;;5014076;28;20975;-64
2022/09/07 00:26:19;;;;;;;6.67;3.60;;;;;;;;;;5017566;28;20461;-64
2022/09/07 00:28:46;;;;;;;3.90;2.80;;;;;;;;;;5033659;28;20522;-65
2022/09/07 00:31:15;;;;;;;4.30;2.40;;;;;;;;;;5030562;28;20450;-64
2022/09/07 00:33:43;;;;;;;5.83;2.80;;;;;;;;;;5014245;28;20447;-64
2022/09/07 00:36:10;;;;;;;6.33;2.63;;;;;;;;;;5015173;28;20441;-64
2022/09/07 00:38:38;;;;;;;4.40;2.50;;;;;;;;;;5033518;28;20992;-64
2022/09/07 00:41:07;;;;;;;7.63;4.00;;;;;;;;;;5028146;28;20485;-64
2022/09/07 00:43:35;;;;;;;4.90;2.43;;;;;;;;;;5013908;28;20439;-64
2022/09/07 00:46:04;;;;;;;4.10;2.50;;;;;;;;;;5015689;28;20443;-64
2022/09/07 00:48:33;;;;;;;4.20;2.30;;;;;;;;;;5033394;28;20488;-64
2022/09/07 00:51:02;;;;;;;6.63;4.13;;;;;;;;;;5029710;28;20440;-64
2022/09/07 00:53:31;;;;;;;4.13;2.77;;;;;;;;;;5013944;28;20435;-63
2022/09/07 00:56:00;;;;;;;4.03;2.30;;;;;;;;;;5015503;28;20443;-64
2022/09/07 00:58:28;;;;;;;4.83;2.30;;;;;;;;;;5033290;28;20446;-64
2022/09/07 01:00:56;;;;;;;4.00;2.17;;;;;;;;;;5031001;28;20850;-64
2022/09/07 01:03:25;;;;;;;5.57;2.87;;;;;;;;;;5013624;28;20534;-64
2022/09/07 01:05:55;;;;;;;7.00;2.37;;;;;;;;;;5013309;28;20446;-64
2022/09/07 01:08:24;;;;;;;3.20;2.30;;;;;;;;;;5033036;28;20438;-64
2022/09/07 01:10:51;;;;;;;5.30;2.53;;;;;;;;;;5032665;28;20920;-64
2022/09/07 01:13:19;;;;;;;7.93;2.23;;;;;;;;;;5012488;28;20521;-64
2022/09/07 01:15:52;;;;;;;3.40;2.20;;;;;;;;;;5013228;28;20446;-63
2022/09/07 01:18:24;;;;;;;4.53;2.33;;;;;;;;;;5013530;28;20965;-64
2022/09/07 01:21:12;;;;;;;7.90;3.43;;;;;;;;;;5013157;28;20439;-64
2022/09/07 01:23:57;;;;;;;5.53;2.13;;;;;;;;;;5012909;28;20934;-64
2022/09/07 01:26:39;;;;;;;5.70;2.30;;;;;;;;;;5015761;28;20439;-63
2022/09/07 01:29:12;;;;;;;8.70;2.20;;;;;;;;;;5010530;28;20517;-65
2022/09/07 01:31:42;;;;;;;3.60;2.40;;;;;;;;;;5029292;28;20462;-65
2022/09/07 01:34:12;;;;;;;5.77;2.70;;;;;;;;;;5032644;28;20433;-65
2022/09/07 01:36:44;;;;;;;4.60;2.67;;;;;;;;;;5021742;28;20448;-64
2022/09/07 01:39:12;;;;;;;5.43;3.00;;;;;;;;;;5012989;28;20830;-64
2022/09/07 01:41:43;;;;;;;12.27;3.40;;;;;;;;;;5019272;28;20440;-64
2022/09/07 01:44:15;;;;;;;9.30;3.20;;;;;;;;;;5032448;28;20963;-64
2022/09/07 01:46:46;;;;;;;7.23;2.80;;;;;;;;;;5024300;28;20545;-64
2022/09/07 01:49:17;;;;;;;5.37;3.10;;;;;;;;;;5012699;28;20583;-64
2022/09/07 01:51:46;;;;;;;6.33;2.33;;;;;;;;;;5004207;28;20447;-65
2022/09/07 01:54:17;;;;;;;4.70;2.80;;;;;;;;;;5032212;28;21046;-64
2022/09/07 01:56:46;;;;;;;5.27;2.17;;;;;;;;;;5032122;28;20438;-64
2022/09/07 01:59:19;;;;;;;7.40;2.77;;;;;;;;;;5025762;28;20462;-64
2022/09/07 02:01:50;;;;;;;5.47;2.93;;;;;;;;;;5012676;28;20442;-64
2022/09/07 02:04:20;;;;;;;5.40;2.07;;;;;;;;;;5019020;28;20457;-64
2022/09/07 02:06:49;;;;;;;4.13;2.60;;;;;;;;;;5032188;28;20442;-64
2022/09/07 02:09:20;;;;;;;5.53;2.33;;;;;;;;;;5025978;28;20878;-64
2022/09/07 02:11:49;;;;;;;6.30;3.40;;;;;;;;;;5012435;28;20467;-64
2022/09/07 02:14:20;;;;;;;6.97;3.93;;;;;;;;;;5013197;28;20447;-64
2022/09/07 02:16:51;;;;;;;9.30;3.80;;;;;;;;;;5012579;28;20438;-64
2022/09/07 02:19:19;;;;;;;6.03;3.40;;;;;;;;;;5017285;28;20774;-64
2022/09/07 02:21:49;;;;;;;6.60;3.00;;;;;;;;;;5032252;28;20434;-64
2022/09/07 02:24:19;;;;;;;5.63;2.80;;;;;;;;;;5027525;28;20518;-64
2022/09/07 02:26:48;;;;;;;4.07;2.40;;;;;;;;;;5012319;28;20536;-64
2022/09/07 02:29:17;;;;;;;9.37;3.20;;;;;;;;;;5012969;28;20927;-64
2022/09/07 02:31:46;;;;;;;3.30;2.17;;;;;;;;;;5029255;28;20845;-64
2022/09/07 02:34:14;;;;;;;6.83;2.00;;;;;;;;;;5026375;28;20440;-64
2022/09/07 02:36:45;;;;;;;6.53;2.40;;;;;;;;;;5012356;28;20440;-64
2022/09/07 02:39:12;;;;;;;7.40;2.00;;;;;;;;;;5016357;28;20462;-64
2022/09/07 02:41:41;;;;;;;4.77;1.80;;;;;;;;;;5031696;28;20473;-64
2022/09/07 02:44:11;;;;;;;4.57;2.00;;;;;;;;;;5028359;28;20464;-64
2022/09/07 02:46:54;;;;;;;5.10;2.10;;;;;;;;;;5012025;28;20475;-64
2022/09/07 02:49:26;;;;;;;12.93;2.43;;;;;;;;;;5019070;28;20840;-65
2022/09/07 02:52:02;;;;;;;5.53;2.90;;;;;;;;;;5035425;28;20445;-64
2022/09/07 02:54:38;;;;;;;3.53;2.23;;;;;;;;;;5029848;28;20434;-64
2022/09/07 02:57:09;;;;;;;5.83;2.20;;;;;;;;;;5015890;28;20533;-64
2022/09/07 02:59:40;;;;;;;4.33;2.20;;;;;;;;;;5021362;28;20469;-64
2022/09/07 03:02:12;;;;;;;6.20;2.47;;;;;;;;;;5035492;28;20480;-65
2022/09/07 03:04:44;;;;;;;3.20;2.23;;;;;;;;;;5029210;28;20444;-64
2022/09/07 03:07:15;;;;;;;6.00;3.07;;;;;;;;;;5015608;28;20925;-64
2022/09/07 03:09:44;;;;;;;4.50;2.60;;;;;;;;;;5020856;28;20478;-64
2022/09/07 03:12:13;;;;;;;9.27;3.07;;;;;;;;;;5035248;28;20974;-64
2022/09/07 03:14:41;;;;;;;6.73;2.90;;;;;;;;;;5030134;28;20439;-65
2022/09/07 03:17:10;;;;;;;5.10;2.43;;;;;;;;;;5015230;28;20460;-64
2022/09/07 03:19:37;;;;;;;3.90;2.83;;;;;;;;;;5019190;28;20490;-64
2022/09/07 03:22:05;;;;;;;4.00;2.60;;;;;;;;;;5026353;28;20446;-64
2022/09/07 03:24:33;;;;;;;6.67;3.87;;;;;;;;;;5027501;28;20431;-64
2022/09/07 03:27:00;;;;;;;11.00;4.20;;;;;;;;;;5015372;28;20439;-64
2022/09/07 03:29:27;;;;;;;8.20;3.70;;;;;;;;;;5020202;28;20485;-64
2022/09/07 03:31:55;;;;;;;6.23;3.23;;;;;;;;;;5034872;28;20785;-64
2022/09/07 03:34:23;;;;;;;5.80;3.10;;;;;;;;;;5028399;28;20505;-64
2022/09/07 03:36:51;;;;;;;6.00;3.13;;;;;;;;;;5015190;28;20444;-64
2022/09/07 03:39:21;;;;;;;9.90;2.80;;;;;;;;;;5015017;28;20880;-64
2022/09/07 03:41:48;;;;;;;4.80;3.17;;;;;;;;;;5014987;28;20955;-66
2022/09/07 03:44:16;;;;;;;4.23;2.33;;;;;;;;;;5016906;28;20483;-64
2022/09/07 03:46:43;;;;;;;3.30;1.93;;;;;;;;;;5034589;28;20473;-64
2022/09/07 03:49:11;;;;;;;4.23;2.30;;;;;;;;;;5032198;28;20448;-64
2022/09/07 03:51:41;;;;;;;8.43;2.57;;;;;;;;;;5014903;28;20650;-64
2022/09/07 03:54:08;;;;;;;5.30;2.50;;;;;;;;;;5014487;28;20448;-65
2022/09/07 03:56:35;;;;;;;6.33;2.50;;;;;;;;;;5034514;28;20434;-63
2022/09/07 03:59:03;;;;;;;4.50;2.80;;;;;;;;;;5033964;28;20513;-64
2022/09/07 04:01:30;;;;;;;6.23;2.47;;;;;;;;;;5015286;28;20490;-65
2022/09/07 04:03:58;;;;;;;7.20;2.67;;;;;;;;;;5024958;28;20524;-64
2022/09/07 04:06:26;;;;;;;5.80;3.03;;;;;;;;;;5034370;28;20931;-64
2022/09/07 04:08:56;;;;;;;2.60;1.80;;;;;;;;;;5020005;28;20515;-64
2022/09/07 04:11:23;;;;;;;4.43;2.50;;;;;;;;;;5014408;28;20568;-64
2022/09/07 04:13:51;;;;;;;6.17;3.13;;;;;;;;;;5024537;28;20458;-64
2022/09/07 04:16:19;;;;;;;5.20;2.70;;;;;;;;;;5033970;28;20438;-64
2022/09/07 04:18:48;;;;;;;4.20;2.67;;;;;;;;;;5023338;28;20522;-64
2022/09/07 04:21:16;;;;;;;5.83;3.30;;;;;;;;;;5022712;28;20444;-64
2022/09/07 04:23:44;;;;;;;4.07;2.87;;;;;;;;;;5030605;28;20446;-64
2022/09/07 04:26:17;;;;;;;6.10;3.10;;;;;;;;;;5032041;28;20444;-66
2022/09/07 04:28:44;;;;;;;7.43;2.90;;;;;;;;;;5026472;28;20784;-64
2022/09/07 04:31:12;;;;;;;6.00;2.73;;;;;;;;;;5031889;28;20561;-64
2022/09/07 04:33:39;;;;;;;6.23;2.70;;;;;;;;;;5030301;28;20459;-64
2022/09/07 04:36:07;;;;;;;7.10;2.50;;;;;;;;;;5027758;28;20517;-64
2022/09/07 04:38:34;;;;;;;3.50;3.00;;;;;;;;;;5031240;28;21083;-64
2022/09/07 04:41:02;;;;;;;4.63;2.33;;;;;;;;;;5031865;28;20445;-64
2022/09/07 04:43:31;;;;;;;3.40;2.10;;;;;;;;;;5030950;28;20447;-65
2022/09/07 04:45:59;;;;;;;5.80;2.17;;;;;;;;;;5031943;28;20470;-64
2022/09/07 04:48:26;;;;;;;3.67;2.30;;;;;;;;;;5031559;28;20470;-64
2022/09/07 04:50:53;;;;;;;3.60;2.33;;;;;;;;;;5031783;28;20494;-64
2022/09/07 04:53:21;;;;;;;3.00;1.83;;;;;;;;;;5029916;28;20446;-64
2022/09/07 04:55:48;;;;;;;3.30;2.00;;;;;;;;;;5031907;28;20441;-65
2022/09/07 04:58:15;;;;;;;4.77;1.93;;;;;;;;;;5030910;28;20450;-64
2022/09/07 05:00:44;;;;;;;4.13;3.10;;;;;;;;;;5031438;28;20446;-65
2022/09/07 05:03:12;;;;;;;5.53;3.70;;;;;;;;;;5030702;28;20437;-64
2022/09/07 05:05:39;;;;;;;5.70;2.87;;;;;;;;;;5031459;28;20493;-64
2022/09/07 05:08:07;;;;;;;9.07;3.20;;;;;;;;;;5024420;28;20438;-64
2022/09/07 05:10:34;;;;;;;7.20;3.43;;;;;;;;;;5030125;28;20478;-65
2022/09/07 05:13:02;;;;;;;8.70;2.93;;;;;;;;;;5026490;28;20446;-64
2022/09/07 05:15:30;;;;;;;4.40;2.30;;;;;;;;;;5031455;28;20438;-64
2022/09/07 05:17:58;;;;;;;4.13;2.90;;;;;;;;;;5030537;28;20489;-64
2022/09/07 05:20:26;;;;;;;5.23;2.50;;;;;;;;;;5025976;28;20452;-65
2022/09/07 05:22:58;;;;;;;5.10;2.00;;;;;;;;;;5031141;28;20538;-64
2022/09/07 05:25:27;;;;;;;4.90;2.23;;;;;;;;;;5028720;28;20827;-65
2022/09/07 05:27:54;;;;;;;4.00;2.13;;;;;;;;;;5030822;28;20454;-64
2022/09/07 05:30:22;;;;;;;4.13;2.30;;;;;;;;;;5029903;28;20560;-64
2022/09/07 05:32:50;;;;;;;3.20;2.13;;;;;;;;;;5031130;28;20500;-64
2022/09/07 05:35:19;;;;;;;4.20;2.30;;;;;;;;;;5026746;28;20451;-64
2022/09/07 05:37:50;;;;;;;2.40;1.60;;;;;;;;;;5028835;28;20453;-64
2022/09/07 05:40:17;;;;;;;8.87;2.37;;;;;;;;;;5030268;28;20457;-64
2022/09/07 05:42:45;;;;;;;4.83;2.60;;;;;;;;;;5030866;28;20442;-64
2022/09/07 05:45:13;;;;;;;6.00;2.50;;;;;;;;;;5025530;28;21007;-65
2022/09/07 05:47:43;;;;;;;9.57;3.90;;;;;;;;;;5030570;28;20464;-64
2022/09/07 05:50:10;;;;;;;5.93;2.40;;;;;;;;;;5025480;28;20490;-65
2022/09/07 05:52:39;;;;;;;3.93;1.97;;;;;;;;;;5024477;28;20498;-66
2022/09/07 05:55:07;;;;;;;2.90;1.87;;;;;;;;;;5025444;28;20935;-65
2022/09/07 05:57:34;;;;;;;4.80;1.97;;;;;;;;;;5031464;28;20450;-64
2022/09/07 06:00:01;;;;;;;6.30;2.43;;;;;;;;;;5030864;28;20479;-65
2022/09/07 06:02:29;;;;;;;6.17;2.43;;;;;;;;;;5030146;28;20828;-65
2022/09/07 06:04:56;;;;;;;4.90;2.60;;;;;;;;;;5030963;28;20522;-65
2022/09/07 06:07:23;;;;;;;7.70;2.33;;;;;;;;;;5030947;28;20478;-65
2022/09/07 06:09:52;;;;;;;5.00;2.50;;;;;;;;;;5024921;28;20530;-68
2022/09/07 06:12:19;;;;;;;4.50;3.10;;;;;;;;;;5028640;28;20541;-66
2022/09/07 06:14:46;;;;;;;8.07;3.00;;;;;;;;;;5028501;28;20472;-64
2022/09/07 06:17:13;;;;;;;8.30;2.67;;;;;;;;;;5030520;28;20539;-64
2022/09/07 06:19:40;;;;;;;7.57;3.00;;;;;;;;;;5028450;28;20495;-65
2022/09/07 06:22:08;;;;;;;4.93;2.50;;;;;;;;;;5030807;28;20510;-64
2022/09/07 06:24:35;;;;;;;6.57;1.83;;;;;;;;;;5033141;28;20525;-64
2022/09/07 06:27:03;;;;;;;4.30;2.50;;;;;;;;;;5032615;28;20483;-64
2022/09/07 06:29:31;;;;;;;5.60;4.17;;;;;;;;;;5031676;28;20813;-65
2022/09/07 06:31:59;;;;;;;5.40;3.50;;;;;;;;;;5029451;28;20538;-65
2022/09/07 06:34:26;;;;;;;7.87;3.30;;;;;;;;;;5023093;28;20552;-65
2022/09/07 06:36:53;;;;;;;3.40;2.13;;;;;;;;;;5016831;28;20491;-64
2022/09/07 06:39:20;;;;;;;3.40;2.47;;;;;;;;;;5016699;28;20441;-64
2022/09/07 06:41:47;;;;;;;4.10;2.30;;;;;;;;;;5016548;28;20979;-64
2022/09/07 06:44:16;;;;;;;5.77;2.60;;;;;;;;;;5016600;28;20911;-64
2022/09/07 06:46:43;;;;;;;5.90;2.47;;;;;;;;;;5015951;28;20532;-64
2022/09/07 06:49:10;;;;;;;7.60;2.47;;;;;;;;;;5016439;28;20442;-65
2022/09/07 06:51:37;;;;;;;5.80;2.20;;;;;;;;;;5016297;28;20481;-64
2022/09/07 06:54:05;;;;;;;2.93;1.63;;;;;;;;;;5016418;28;20443;-65
2022/09/07 06:56:32;;;;;;;3.30;1.87;;;;;;;;;;5016559;28;20837;-65
2022/09/07 06:58:59;;;;;;;4.10;2.90;;;;;;;;;;5016489;28;20438;-65
2022/09/07 07:01:29;;;;;;;3.20;2.10;;;;;;;;;;5016368;28;20937;-65
2022/09/07 07:03:57;;;;;;;3.87;2.37;;;;;;;;;;5016352;28;20454;-64
2022/09/07 07:06:24;;;;;;;7.90;2.40;;;;;;;;;;5016064;28;20501;-65
2022/09/07 07:08:54;;;;;;;6.93;2.60;;;;;;;;;;5016232;28;20526;-64
2022/09/07 07:11:21;;;;;;;5.70;2.10;;;;;;;;;;5015869;28;20885;-65
2022/09/07 07:13:48;;;;;;;4.47;2.00;;;;;;;;;;5016181;28;20845;-65
2022/09/07 07:16:16;;;;;;;5.07;1.83;;;;;;;;;;5015909;28;20435;-65
2022/09/07 07:18:47;;;;;;;3.80;2.03;;;;;;;;;;5015516;28;20926;-64
2022/09/07 07:21:15;;;;;;;11.10;2.57;;;;;;;;;;5015995;28;20453;-64
2022/09/07 07:23:42;;;;;;;4.20;1.70;;;;;;;;;;5015878;28;20439;-65
2022/09/07 07:26:12;;;;;;;4.57;2.33;;;;;;;;;;5015596;28;20443;-64
2022/09/07 07:28:39;;;;;;;9.53;2.60;;;;;;;;;;5015630;28;20479;-64
2022/09/07 07:31:07;;;;;;;4.70;1.77;;;;;;;;;;5015653;28;20584;-65
2022/09/07 07:33:35;;;;;;;8.07;1.50;;;;;;;;;;5014724;28;20439;-64
2022/09/07 07:36:14;;;;;;;2.40;1.50;;;;;;;;;;5015412;28;20533;-65
2022/09/07 07:38:42;;;;;;;6.40;1.40;;;;;;;;;;5015714;28;20442;-64
2022/09/07 07:41:09;;;;;;;4.50;1.90;;;;;;;;;;5015517;28;20442;-65
2022/09/07 07:43:37;;;;;;;3.50;1.50;;;;;;;;;;5015553;28;20525;-64
2022/09/07 07:46:05;;;;;;;5.80;2.30;;;;;;;;;;5015386;28;20446;-65
2022/09/07 07:48:33;;;;;;;3.77;2.00;;;;;;;;;;5015655;28;20478;-65
2022/09/07 07:51:00;;;;;;;3.47;1.93;;;;;;;;;;5015243;28;20536;-65
2022/09/07 07:53:29;;;;;;;4.43;2.83;;;;;;;;;;5015360;28;20502;-66
2022/09/07 07:55:59;;;;;;;3.07;1.80;;;;;;;;;;5015137;28;20438;-65
2022/09/07 07:58:26;;;;;;;3.50;1.87;;;;;;;;;;5015363;28;20449;-65
2022/09/07 08:00:54;;;;;;;3.20;1.67;;;;;;;;;;5015152;28;20447;-65
2022/09/07 08:03:21;;;;;;;4.80;1.70;;;;;;;;;;5015330;28;20443;-65
2022/09/07 08:05:48;;;;;;;5.70;1.70;;;;;;;;;;5014705;28;20497;-65
2022/09/07 08:08:15;;;;;;;4.17;1.80;;;;;;;;;;5015055;28;20503;-65
2022/09/07 08:10:46;;;;;;;2.83;1.37;;;;;;;;;;5014865;28;20920;-65
2022/09/07 08:13:13;;;;;;;5.10;2.10;;;;;;;;;;5014508;28;20997;-64
2022/09/07 08:15:43;;;;;;;6.57;1.67;;;;;;;;;;5015059;28;20481;-65
2022/09/07 08:18:11;;;;;;;3.40;1.63;;;;;;;;;;5014854;28;20446;-65
2022/09/07 08:20:38;;;;;;;3.07;1.80;;;;;;;;;;5014622;28;20522;-65
2022/09/07 08:23:06;;;;;;;4.33;1.70;;;;;;;;;;5014832;28;20707;-65
2022/09/07 08:25:33;;;;;;;4.87;2.20;;;;;;;;;;5014803;28;20442;-65
2022/09/07 08:28:02;;;;;;;5.30;2.37;;;;;;;;;;5014788;28;20477;-65
2022/09/07 08:30:30;;;;;;;2.63;1.73;;;;;;;;;;5014337;28;20975;-65
2022/09/07 08:32:57;;;;;;;3.80;1.73;;;;;;;;;;5014350;28;20442;-64
2022/09/07 08:35:24;;;;;;;4.30;1.77;;;;;;;;;;5014594;28;20457;-64
2022/09/07 08:37:51;;;;;;;4.73;1.50;;;;;;;;;;5014540;28;20447;-64
2022/09/07 08:40:19;;;;;;;3.03;1.63;;;;;;;;;;5014477;28;20470;-64
2022/09/07 08:42:53;;;;;;;4.40;1.57;;;;;;;;;;5014554;28;20477;-64
2022/09/07 08:45:26;;;;;;;3.77;1.87;;;;;;;;;;5014255;28;20437;-64
2022/09/07 08:47:53;;;;;;;2.87;1.40;;;;;;;;;;5014088;28;20521;-64
2022/09/07 08:50:23;;;;;;;3.23;1.77;;;;;;;;;;5014003;28;20497;-64
2022/09/07 08:52:52;;;;;;;2.67;1.70;;;;;;;;;;5013724;28;20482;-64
2022/09/07 08:55:21;;;;;;;3.70;1.53;;;;;;;;;;5014264;28;20446;-64
2022/09/07 08:57:53;;;;;;;3.43;1.60;;;;;;;;;;5014202;28;20478;-64
2022/09/07 09:00:21;;;;;;;5.43;1.60;;;;;;;;;;5014391;28;20439;-64
2022/09/07 09:02:50;;;;;;;4.50;1.50;;;;;;;;;;5013938;28;20439;-64
2022/09/07 09:05:21;;;;;;;3.07;1.77;;;;;;;;;;5013365;28;20438;-64
2022/09/07 09:07:55;;;;;;;3.10;1.93;;;;;;;;;;5013826;28;20513;-64
2022/09/07 09:10:27;;;;;;;4.23;2.40;;;;;;;;;;5014172;28;20446;-64
2022/09/07 09:13:00;;;;;;;4.70;2.13;;;;;;;;;;5013896;28;20490;-64
2022/09/07 09:15:31;;;;;;;3.20;1.70;;;;;;;;;;5013834;28;20785;-64
2022/09/07 09:18:05;;;;;;;3.60;1.50;;;;;;;;;;5013815;28;20447;-64
2022/09/07 09:20:34;;;;;;;6.03;2.23;;;;;;;;;;5013623;28;20481;-65
2022/09/07 09:23:03;;;;;;;4.00;1.60;;;;;;;;;;5013795;28;20439;-64
2022/09/07 09:25:33;;;;;;;3.23;1.90;;;;;;;;;;5013531;28;20453;-64
2022/09/07 09:28:01;;;;;;;4.13;1.67;;;;;;;;;;5013726;28;20513;-64
2022/09/07 09:30:28;;;;;;;3.07;2.07;;;;;;;;;;5013612;28;20447;-64
2022/09/07 09:33:24;;;;;;;4.13;1.50;;;;;;;;;;5013309;28;20993;-64
2022/09/07 09:35:52;;;;;;;3.50;1.80;;;;;;;;;;5013139;28;20489;-64
2022/09/07 09:38:33;;;;;;;5.97;2.03;;;;;;;;;;5013481;28;20431;-64
2022/09/07 09:41:03;;;;;;;3.10;1.60;;;;;;;;;;5013338;28;20995;-64
2022/09/07 09:43:38;;;;;;;3.70;2.00;;;;;;;;;;5013442;28;20918;-64
2022/09/07 09:46:15;;;;;;;8.77;2.27;;;;;;;;;;5013295;28;20493;-63
2022/09/07 09:48:50;;;;;;;6.33;2.73;;;;;;;;;;5013284;28;20892;-65
2022/09/07 09:51:17;;;;;;;5.83;2.10;;;;;;;;;;5013294;28;20470;-64
2022/09/07 09:53:51;;;;;;;13.27;4.27;;;;;;;;;;5013192;28;20938;-64
2022/09/07 09:56:19;;;;;;;3.80;1.87;;;;;;;;;;5013045;28;20443;-64
2022/09/07 09:58:46;;;;;;;3.20;1.67;;;;;;;;;;5013118;28;20477;-64
2022/09/07 10:01:22;;;;;;;5.67;2.10;;;;;;;;;;5013121;28;20451;-64
2022/09/07 10:03:50;;;;;;;2.40;1.43;;;;;;;;;;5013236;28;20438;-63
2022/09/07 10:06:19;;;;;;;3.53;1.80;;;;;;;;;;5012670;28;20438;-64
2022/09/07 10:08:52;;;;;;;5.73;1.70;;;;;;;;;;5013077;28;20443;-64
2022/09/07 10:11:20;;;;;;;4.20;2.27;;;;;;;;;;5013080;28;20442;-64
2022/09/07 10:13:56;;;;;;;4.27;2.37;;;;;;;;;;5013048;28;20477;-64
2022/09/07 10:16:34;;;;;;;4.73;1.93;;;;;;;;;;5013319;28;20512;-64
2022/09/07 10:19:03;;;;;;;6.93;2.40;;;;;;;;;;5012700;28;20443;-64
2022/09/07 10:21:31;;;;;;;2.83;1.30;;;;;;;;;;5012761;28;20442;-64
2022/09/07 10:23:59;;;;;;;2.90;1.50;;;;;;;;;;5012747;28;20439;-64
2022/09/07 10:26:28;;;;;;;5.37;2.50;;;;;;;;;;5013011;28;20431;-65
2022/09/07 10:29:07;;;;;;;3.70;1.70;;;;;;;;;;5012917;28;20892;-65
2022/09/07 10:31:37;;;;;;;2.67;1.60;;;;;;;;;;5012896;28;20470;-64
2022/09/07 10:34:10;;;;;;;4.20;1.90;;;;;;;;;;5012870;28;20438;-65
2022/09/07 10:36:40;;;;;;;5.57;1.90;;;;;;;;;;5012955;28;20450;-64
2022/09/07 10:39:12;;;;;;;5.80;2.73;;;;;;;;;;5013151;28;20453;-64
2022/09/07 10:41:42;;;;;;;3.77;2.20;;;;;;;;;;5013048;28;20872;-65
2022/09/07 10:44:12;;;;;;;2.60;1.50;;;;;;;;;;5012312;28;20489;-65
2022/09/07 10:46:47;;;;;;;3.80;1.50;;;;;;;;;;5012350;28;20466;-65
2022/09/07 10:49:19;;;;;;;3.87;2.60;;;;;;;;;;5012819;28;20540;-66
2022/09/07 10:51:57;;;;;;;3.30;1.67;;;;;;;;;;5015933;28;20898;-65
2022/09/07 10:54:28;;;;;;;4.10;2.07;;;;;;;;;;5020256;28;20929;-65
2022/09/07 10:57:01;;;;;;;3.83;1.73;;;;;;;;;;5013309;28;20435;-67
2022/09/07 10:59:34;;;;;;;5.07;1.60;;;;;;;;;;5012709;28;20442;-65
2022/09/07 11:02:05;;;;;;;5.47;1.93;;;;;;;;;;5024610;28;20438;-66
2022/09/07 11:04:40;;;;;;;3.83;1.40;;;;;;;;;;5032210;28;20477;-65
2022/09/07 11:07:14;;;;;;;4.10;1.97;;;;;;;;;;5032396;28;20440;-65
2022/09/07 11:09:50;;;;;;;2.50;1.67;;;;;;;;;;5034191;28;20441;-65
2022/09/07 11:12:19;;;;;;;4.97;1.70;;;;;;;;;;5021640;28;20524;-65
2022/09/07 11:14:49;;;;;;;2.67;1.30;;;;;;;;;;5020447;28;20768;-65
2022/09/07 11:17:17;;;;;;;4.20;1.50;;;;;;;;;;5034617;28;20825;-64
2022/09/07 11:19:49;;;;;;;4.40;1.37;;;;;;;;;;5033553;28;20539;-63
2022/09/07 11:22:20;;;;;;;3.73;1.40;;;;;;;;;;5032882;28;20818;-63
2022/09/07 11:24:49;;;;;;;2.90;1.23;;;;;;;;;;5032910;28;20993;-63
2022/09/07 11:27:19;;;;;;;4.47;2.10;;;;;;;;;;5035480;28;20456;-63
2022/09/07 11:29:49;;;;;;;4.77;1.50;;;;;;;;;;5035650;28;20836;-63
2022/09/07 11:32:21;;;;;;;3.90;1.77;;;;;;;;;;5035341;28;20442;-63
2022/09/07 11:34:52;;;;;;;4.93;1.43;;;;;;;;;;5035336;28;20909;-63
2022/09/07 11:37:21;;;;;;;5.50;1.30;;;;;;;;;;5035636;28;20521;-63
2022/09/07 11:39:51;;;;;;;2.93;1.20;;;;;;;;;;5035027;28;20909;-63
2022/09/07 11:42:22;;;;;;;3.17;1.57;;;;;;;;;;5035293;28;20540;-63
2022/09/07 11:44:52;;;;;;;3.73;2.37;;;;;;;;;;5035410;28;20441;-63
2022/09/07 11:47:25;;;;;;;3.07;1.20;;;29.60;47.00;;;;;;5035095;28;20488;-63
2022/09/07 11:49:54;;;;;;;2.30;1.00;;;46.90;19.50;;;;;;5035217;28;20532;-63
2022/09/07 11:52:32;;;;;;;3.70;1.27;;;45.50;20.00;;;;;;5035168;28;20473;-63
2022/09/07 11:55:03;;;;;;;3.57;1.27;;;43.90;20.50;;;;;;5034928;28;20450;-63
2022/09/07 11:57:46;;;;;;;3.67;1.50;;;42.90;21.50;;;;;;5034794;28;20979;-63
2022/09/07 12:00:19;;;;;;;3.23;1.20;;;42.40;22.70;;;;;;5035067;28;20496;-63
2022/09/07 12:03:13;;;;;;;4.23;2.47;;;41.80;23.00;;;;;;5034828;28;21038;-62
2022/09/07 12:06:03;;;;;;;7.33;2.27;;;41.20;23.60;;;;;;5033117;28;20476;-63
2022/09/07 12:08:42;;;;;;;2.43;1.27;;;40.60;24.20;;;;;;5034506;28;20474;-63
2022/09/07 12:11:24;;;;;;;3.83;1.30;;;40.40;25.50;;;;;;5035009;28;20480;-63
2022/09/07 12:14:11;;;;;;;4.47;1.60;;;40.40;24.30;;;;;;5034961;28;20508;-63
2022/09/07 12:17:09;;;;;;;2.87;1.43;;;40.30;25.70;;;;;;5034608;28;21002;-63
2022/09/07 12:19:36;;;;;;;5.57;1.33;;;40.20;25.60;;;;;;5032406;28;20450;-63
2022/09/07 12:22:18;;;;;;;2.73;1.43;;;40.30;26.50;;;;;;5034490;28;20513;-63
2022/09/07 12:24:47;;;;;;;2.80;1.70;;;40.30;25.10;;;;;;5034637;28;20870;-62
2022/09/07 12:27:36;;;;;;;3.13;1.37;;;40.20;25.80;;;;;;5034436;28;20430;-63
2022/09/07 12:30:50;;;;;;;4.10;1.50;;;39.90;25.50;;;;;;5034355;28;20527;-63
2022/09/07 12:33:29;;;;;;;3.50;1.47;;;39.60;25.50;;;;;;5034257;28;20523;-63
2022/09/07 12:35:57;;;;;;;4.07;2.60;;;39.30;25.90;;;;;;5033903;28;20803;-63
2022/09/07 12:39:00;;;;;;;3.50;1.70;;;39.20;26.90;;;;;;5034264;28;20492;-63
2022/09/07 12:41:46;;;;;;;3.50;1.70;;;39.00;26.50;;;;;;5018754;28;20487;-63
2022/09/07 12:44:21;;;;;;;6.53;2.80;;;39.00;26.50;;;;;;5034273;28;20517;-62
2022/09/07 12:46:54;;;;;;;3.53;1.50;;;39.10;27.10;;;;;;5033838;28;20858;-62
2022/09/07 12:49:41;;;;;;;3.43;1.50;;;39.20;26.40;;;;;;5034140;28;20472;-62
2022/09/07 12:52:25;;;;;;;3.37;1.43;;;38.90;25.80;;;;;;5033740;28;20998;-63
2022/09/07 12:54:57;;;;;;;5.73;1.53;;;38.60;26.90;;;;;;5034074;28;20920;-63
2022/09/07 12:57:36;;;;;;;6.47;1.80;;;38.10;27.10;;;;;;5034086;28;20481;-62
2022/09/07 13:00:17;;;;;;;4.50;1.40;;;37.50;26.90;;;;;;5033341;28;20485;-64
2022/09/07 13:03:15;;;;;;;2.73;1.13;;;36.90;26.90;;;;;;5033607;28;20493;-63
2022/09/07 13:05:56;;;;;;;2.93;1.33;;;36.30;27.60;;;;;;5033719;28;20446;-62
2022/09/07 13:09:05;;;;;;;4.67;1.83;;;35.80;28.30;;;;;;5033882;28;20781;-62
2022/09/07 13:11:35;;;;;;;4.27;1.33;;;35.30;29.00;;;;;;5028476;28;20450;-62
2022/09/07 13:14:06;;;;;;;4.83;1.63;;;34.90;28.90;;;;;;5033424;28;20423;-62
2022/09/07 13:16:35;;;;;;;3.37;1.47;;;34.60;28.20;;;;;;5033781;28;20469;-62
2022/09/07 13:19:05;;;;;;;5.67;2.00;;;34.30;27.50;;;;;;5033499;28;20434;-62
2022/09/07 13:21:40;;;;;;;2.27;1.10;;;34.00;28.00;;;;;;5033701;28;20495;-62
2022/09/07 13:24:51;;;;;;;3.37;1.30;;;33.70;29.50;;;;;;5033417;28;20492;-62
2022/09/07 13:27:32;;;;;;;3.47;1.30;;;33.30;28.60;;;;;;5033363;28;20466;-62
2022/09/07 13:30:04;;;;;;;5.60;1.80;;;33.00;29.20;;;;;;5033325;28;20445;-62
2022/09/07 13:32:32;;;;;;;2.40;1.27;;;32.90;28.90;;;;;;5032696;28;20438;-65
2022/09/07 13:35:15;;;;;;;2.60;1.10;;;32.70;28.60;;;;;;5033253;28;20442;-62
2022/09/07 13:37:49;;;;;;;2.90;1.17;;;32.50;29.00;;;;;;5033337;28;20441;-62
2022/09/07 13:40:20;;;;;;;2.90;1.13;;;32.20;30.00;;;;;;5032940;28;20438;-62
2022/09/07 13:42:48;;;;;;;4.27;1.77;;;32.10;31.50;;;;;;5033052;28;20520;-62
2022/09/07 13:45:33;;;;;;;4.60;1.77;;;31.90;31.60;;;;;;5033061;28;20532;-62
2022/09/07 13:48:09;;;;;;;3.93;1.30;;;31.90;31.00;;;;;;5032815;28;20657;-62
2022/09/07 13:50:45;;;;;;;4.77;1.67;;;31.80;30.90;;;;;;5032887;28;20444;-62
2022/09/07 13:53:28;;;;;;;4.63;1.80;;;31.70;32.30;;;;;;5033058;28;20480;-62
2022/09/07 13:56:04;;;;;;;3.50;1.50;;;31.60;33.00;;;;;;5033062;28;20472;-62
2022/09/07 13:58:35;;;;;;;2.57;1.17;;;31.40;33.20;;;;;;5033177;28;20496;-63
2022/09/07 14:01:07;;;;;;;4.33;1.90;;;31.20;34.00;;;;;;5033028;28;20469;-62
2022/09/07 14:03:45;;;;;;;3.07;1.53;;;31.10;32.40;;;;;;5032608;28;20517;-62
2022/09/07 14:06:17;;;;;;;3.33;1.40;;;31.10;31.00;;;;;;5032458;28;20434;-64
2022/09/07 14:08:48;;;;;;;4.77;1.70;;;31.00;31.10;;;;;;5032791;28;20860;-65
2022/09/07 14:11:19;;;;;;;5.50;1.60;;;31.00;31.50;;;;;;5032701;28;21268;-64
2022/09/07 14:13:46;;;;;;;3.33;1.40;;;31.00;31.50;;;;;;5032837;28;20450;-66
2022/09/07 14:16:16;;;;;;;3.40;1.47;;;31.00;31.20;;;;;;5032673;28;20489;-64
2022/09/07 14:18:42;;;;;;;3.30;1.67;;;30.90;29.80;;;;;;5032900;28;20521;-64
2022/09/07 14:21:19;;;;;;;4.50;2.30;;;30.70;30.50;;;;;;5032836;28;20477;-64
2022/09/07 14:23:50;;;;;;;5.00;2.73;;;30.70;31.40;;;;;;5032685;28;20495;-64
2022/09/07 14:26:20;;;;;;;2.40;1.20;;;30.60;32.20;;;;;;5032934;28;20453;-63
2022/09/07 14:28:49;;;;;;;7.53;5.93;;;30.50;31.70;;;;;;5032731;28;20997;-64
2022/09/07 14:31:19;;;;;;;6.37;5.60;;;30.40;31.50;;;;;;5032477;28;21004;-65
2022/09/07 14:33:51;;;;;;;6.67;2.50;;;30.30;30.80;;;;;;5032764;28;20445;-64
2022/09/07 14:36:19;;;;;;;4.50;1.83;;;30.30;31.60;;;;;;5032640;28;20460;-64
2022/09/07 14:38:47;;;;;;;3.47;1.40;;;30.20;31.00;;;;;;5032066;28;20504;-64
2022/09/07 14:41:16;;;;;;;2.63;1.30;;;30.10;29.90;;;;;;5032217;28;20485;-64